createdAt,value
2018-07-09T00:00:54.286Z,23.06
2018-07-09T00:01:54.287Z,23.05
2018-07-09T00:02:54.335Z,23.06
2018-07-09T00:03:54.377Z,23.05
2018-07-09T00:04:54.681Z,23.05
2018-07-09T00:05:54.627Z,23.05
2018-07-09T00:06:54.376Z,23.05
2018-07-09T00:07:54.330Z,23.04
2018-07-09T00:08:54.396Z,23.05
2018-07-09T00:09:54.339Z,23.05
2018-07-09T00:10:54.510Z,23.04
2018-07-09T00:11:54.386Z,23.04
2018-07-09T00:12:54.368Z,23.05
2018-07-09T00:13:54.248Z,23.04
2018-07-09T00:14:54.292Z,23.04
2018-07-09T00:15:54.332Z,23.05
2018-07-09T00:16:54.155Z,23.04
2018-07-09T00:17:54.418Z,23.04
2018-07-09T00:18:54.315Z,23.04
2018-07-09T00:19:54.411Z,23.04
2018-07-09T00:20:54.305Z,23.04
2018-07-09T00:21:54.335Z,23.04
2018-07-09T00:22:54.422Z,23.03
2018-07-09T00:23:54.237Z,23.04
2018-07-09T00:24:54.324Z,23.03
2018-07-09T00:25:54.208Z,23.03
2018-07-09T00:26:54.362Z,23.04
2018-07-09T00:27:54.481Z,23.04
2018-07-09T00:28:54.272Z,23.02
2018-07-09T00:29:54.459Z,23.03
2018-07-09T00:30:54.549Z,23.02
2018-07-09T00:31:54.470Z,23.02
2018-07-09T00:32:54.540Z,23.02
2018-07-09T00:33:54.378Z,23.03
2018-07-09T00:34:54.245Z,23.03
2018-07-09T00:35:54.447Z,23.02
2018-07-09T00:36:54.468Z,23.02
2018-07-09T00:37:54.309Z,23.02
2018-07-09T00:38:54.529Z,23.02
2018-07-09T00:39:54.230Z,23.03
2018-07-09T00:40:54.526Z,23.02
2018-07-09T00:41:54.523Z,23.02
2018-07-09T00:42:54.497Z,23.02
2018-07-09T00:43:54.358Z,23.01
2018-07-09T00:44:54.574Z,23.02
2018-07-09T00:45:54.291Z,23.02
2018-07-09T00:46:54.343Z,23.01
2018-07-09T00:47:54.337Z,23.02
2018-07-09T00:48:54.611Z,23.01
2018-07-09T00:49:54.451Z,23.01
2018-07-09T00:50:54.687Z,23.01
2018-07-09T00:51:54.347Z,23.01
2018-07-09T00:52:54.558Z,23.01
2018-07-09T00:53:54.223Z,23.01
2018-07-09T00:54:54.225Z,23.01
2018-07-09T00:55:54.553Z,23.01
2018-07-09T00:56:54.477Z,23.01
2018-07-09T00:57:54.565Z,23.01
2018-07-09T00:58:54.458Z,23.01
2018-07-09T00:59:54.539Z,23
2018-07-09T01:00:54.354Z,23
2018-07-09T01:01:54.399Z,23
2018-07-09T01:02:54.394Z,23.01
2018-07-09T01:03:54.267Z,23
2018-07-09T01:04:54.332Z,23
2018-07-09T01:05:54.356Z,23
2018-07-09T01:06:54.283Z,23.01
2018-07-09T01:07:54.498Z,23
2018-07-09T01:08:54.393Z,23
2018-07-09T01:09:54.395Z,23
2018-07-09T01:10:54.234Z,23
2018-07-09T01:11:54.550Z,22.99
2018-07-09T01:12:54.376Z,22.99
2018-07-09T01:13:54.433Z,22.99
2018-07-09T01:14:54.420Z,22.99
2018-07-09T01:15:54.449Z,22.99
2018-07-09T01:16:54.269Z,22.99
2018-07-09T01:17:54.439Z,22.99
2018-07-09T01:18:54.377Z,22.99
2018-07-09T01:19:54.463Z,22.99
2018-07-09T01:20:54.495Z,22.99
2018-07-09T01:21:54.303Z,22.99
2018-07-09T01:22:54.405Z,22.99
2018-07-09T01:23:54.282Z,22.99
2018-07-09T01:24:54.404Z,22.99
2018-07-09T01:25:54.228Z,22.98
2018-07-09T01:26:54.449Z,22.98
2018-07-09T01:27:54.216Z,22.99
2018-07-09T01:28:54.432Z,22.98
2018-07-09T01:29:54.306Z,22.99
2018-07-09T01:30:54.295Z,23
2018-07-09T01:31:54.474Z,22.99
2018-07-09T01:32:54.271Z,22.98
2018-07-09T01:33:54.393Z,22.99
2018-07-09T01:34:54.310Z,22.98
2018-07-09T01:35:54.393Z,22.98
2018-07-09T01:36:54.501Z,22.98
2018-07-09T01:37:54.224Z,22.97
2018-07-09T01:38:54.398Z,22.97
2018-07-09T01:40:04.243Z,22.98
2018-07-09T01:40:54.275Z,22.97
2018-07-09T01:41:54.413Z,22.97
2018-07-09T01:42:54.448Z,22.97
2018-07-09T01:43:54.405Z,22.97
2018-07-09T01:44:54.348Z,22.97
2018-07-09T01:45:54.225Z,22.97
2018-07-09T01:46:54.532Z,22.97
2018-07-09T01:47:54.416Z,22.97
2018-07-09T01:48:54.142Z,22.98
2018-07-09T01:49:54.593Z,22.96
2018-07-09T01:50:54.504Z,22.96
2018-07-09T01:51:54.479Z,22.97
2018-07-09T01:52:54.343Z,22.97
2018-07-09T01:53:54.437Z,22.95
2018-07-09T01:54:54.310Z,22.96
2018-07-09T01:55:54.365Z,22.96
2018-07-09T01:56:54.420Z,22.96
2018-07-09T01:57:54.213Z,22.96
2018-07-09T01:58:54.241Z,22.96
2018-07-09T01:59:54.351Z,22.96
2018-07-09T02:00:54.350Z,22.95
2018-07-09T02:01:54.571Z,22.95
2018-07-09T02:02:54.560Z,22.96
2018-07-09T02:03:54.582Z,22.96
2018-07-09T02:04:54.580Z,22.96
2018-07-09T02:05:54.318Z,22.95
2018-07-09T02:06:54.303Z,22.95
2018-07-09T02:07:54.204Z,22.95
2018-07-09T02:08:54.405Z,22.95
2018-07-09T02:09:54.533Z,22.94
2018-07-09T02:10:54.299Z,22.95
2018-07-09T02:11:54.327Z,22.94
2018-07-09T02:12:54.498Z,22.94
2018-07-09T02:13:54.254Z,22.95
2018-07-09T02:14:54.540Z,22.94
2018-07-09T02:15:54.350Z,22.95
2018-07-09T02:16:54.376Z,22.94
2018-07-09T02:17:54.535Z,22.94
2018-07-09T02:18:54.698Z,22.94
2018-07-09T02:19:54.353Z,22.93
2018-07-09T02:20:54.385Z,22.93
2018-07-09T02:21:54.579Z,22.94
2018-07-09T02:22:54.412Z,22.94
2018-07-09T02:23:54.405Z,22.94
2018-07-09T02:24:54.378Z,22.95
2018-07-09T02:25:54.359Z,22.93
2018-07-09T02:26:54.171Z,22.94
2018-07-09T02:27:54.250Z,22.94
2018-07-09T02:28:54.232Z,22.94
2018-07-09T02:29:54.239Z,22.94
2018-07-09T02:30:54.216Z,22.94
2018-07-09T02:31:54.473Z,22.92
2018-07-09T02:32:54.599Z,22.93
2018-07-09T02:33:54.149Z,22.93
2018-07-09T02:34:54.571Z,22.93
2018-07-09T02:35:54.352Z,22.93
2018-07-09T02:36:54.473Z,22.93
2018-07-09T02:37:54.264Z,22.93
2018-07-09T02:38:54.304Z,22.93
2018-07-09T02:39:54.414Z,22.93
2018-07-09T02:40:54.422Z,22.94
2018-07-09T02:41:54.287Z,22.92
2018-07-09T02:42:54.251Z,22.94
2018-07-09T02:43:54.305Z,22.92
2018-07-09T02:44:54.369Z,22.92
2018-07-09T02:45:54.250Z,22.91
2018-07-09T02:46:54.321Z,22.92
2018-07-09T02:47:54.430Z,22.93
2018-07-09T02:48:54.305Z,22.92
2018-07-09T02:49:54.411Z,22.91
2018-07-09T02:50:54.167Z,22.93
2018-07-09T02:51:54.148Z,22.92
2018-07-09T02:52:54.272Z,22.91
2018-07-09T02:53:54.261Z,22.92
2018-07-09T02:54:54.308Z,22.92
2018-07-09T02:55:54.331Z,22.9
2018-07-09T02:56:54.353Z,22.92
2018-07-09T02:57:54.342Z,22.91
2018-07-09T02:58:54.369Z,22.91
2018-07-09T02:59:54.370Z,22.91
2018-07-09T03:00:54.369Z,22.91
2018-07-09T03:01:54.257Z,22.91
2018-07-09T03:02:54.411Z,22.9
2018-07-09T03:03:54.301Z,22.91
2018-07-09T03:04:54.524Z,22.92
2018-07-09T03:05:54.689Z,22.91
2018-07-09T03:06:54.315Z,22.91
2018-07-09T03:07:54.499Z,22.91
2018-07-09T03:08:54.257Z,22.91
2018-07-09T03:09:54.156Z,22.9
2018-07-09T03:10:54.206Z,22.91
2018-07-09T03:11:54.429Z,22.9
2018-07-09T03:12:54.351Z,22.9
2018-07-09T03:13:54.438Z,22.9
2018-07-09T03:14:54.315Z,22.9
2018-07-09T03:15:54.545Z,22.91
2018-07-09T03:16:54.420Z,22.9
2018-07-09T03:17:54.397Z,22.91
2018-07-09T03:18:54.192Z,22.9
2018-07-09T03:19:54.345Z,22.91
2018-07-09T03:20:54.202Z,22.9
2018-07-09T03:21:54.607Z,22.9
2018-07-09T03:22:54.570Z,22.9
2018-07-09T03:23:54.216Z,22.89
2018-07-09T03:24:54.281Z,22.9
2018-07-09T03:25:54.437Z,22.89
2018-07-09T03:26:54.277Z,22.9
2018-07-09T03:28:26.102Z,22.89
2018-07-09T03:28:54.494Z,22.9
2018-07-09T03:29:54.257Z,22.9
2018-07-09T03:30:54.262Z,22.89
2018-07-09T03:31:54.283Z,22.89
2018-07-09T03:32:54.540Z,22.9
2018-07-09T03:33:54.308Z,22.9
2018-07-09T03:35:04.224Z,22.89
2018-07-09T03:35:54.308Z,22.89
2018-07-09T03:36:54.219Z,22.9
2018-07-09T03:37:54.387Z,22.89
2018-07-09T03:38:54.417Z,22.89
2018-07-09T03:39:54.268Z,22.89
2018-07-09T03:40:54.167Z,22.89
2018-07-09T03:41:54.324Z,22.89
2018-07-09T03:42:54.287Z,22.88
2018-07-09T03:43:54.336Z,22.89
2018-07-09T03:44:54.589Z,22.9
2018-07-09T03:45:54.221Z,22.89
2018-07-09T03:46:54.309Z,22.9
2018-07-09T03:47:54.578Z,22.88
2018-07-09T03:48:54.452Z,22.89
2018-07-09T03:49:54.279Z,22.89
2018-07-09T03:50:54.299Z,22.89
2018-07-09T03:51:54.308Z,22.88
2018-07-09T03:52:54.176Z,22.88
2018-07-09T03:53:54.270Z,22.88
2018-07-09T03:54:54.316Z,22.88
2018-07-09T03:55:54.328Z,22.88
2018-07-09T03:56:54.439Z,22.89
2018-07-09T03:57:54.438Z,22.88
2018-07-09T03:58:54.327Z,22.88
2018-07-09T03:59:54.214Z,22.88
2018-07-09T04:00:54.301Z,22.87
2018-07-09T04:01:54.151Z,22.88
2018-07-09T04:02:54.276Z,22.88
2018-07-09T04:03:54.374Z,22.88
2018-07-09T04:04:54.379Z,22.88
2018-07-09T04:05:54.347Z,22.88
2018-07-09T04:06:54.324Z,22.88
2018-07-09T04:07:54.404Z,22.88
2018-07-09T04:08:54.465Z,22.88
2018-07-09T04:09:54.328Z,22.88
2018-07-09T04:10:54.195Z,22.88
2018-07-09T04:11:54.223Z,22.91
2018-07-09T04:12:54.273Z,22.78
2018-07-09T04:13:54.317Z,22.56
2018-07-09T04:14:54.372Z,22.48
2018-07-09T04:15:54.575Z,22.45
2018-07-09T04:16:54.487Z,22.4
2018-07-09T04:17:54.404Z,22.27
2018-07-09T04:18:54.201Z,22.25
2018-07-09T04:19:54.206Z,22.17
2018-07-09T04:20:54.348Z,22.12
2018-07-09T04:21:54.612Z,22.02
2018-07-09T04:22:54.198Z,21.88
2018-07-09T04:23:54.366Z,21.87
2018-07-09T04:24:54.462Z,21.78
2018-07-09T04:25:54.527Z,21.67
2018-07-09T04:26:54.329Z,21.71
2018-07-09T04:27:54.236Z,21.58
2018-07-09T04:28:54.204Z,21.47
2018-07-09T04:29:54.200Z,21.54
2018-07-09T04:30:54.315Z,21.42
2018-07-09T04:31:54.262Z,21.54
2018-07-09T04:32:54.460Z,21.61
2018-07-09T04:33:54.305Z,21.48
2018-07-09T04:34:54.292Z,21.45
2018-07-09T04:35:54.396Z,21.38
2018-07-09T04:36:54.499Z,21.28
2018-07-09T04:37:54.202Z,21.32
2018-07-09T04:38:54.257Z,21.31
2018-07-09T04:39:54.257Z,21.24
2018-07-09T04:40:54.337Z,21.16
2018-07-09T04:41:54.425Z,21.24
2018-07-09T04:42:54.630Z,21.22
2018-07-09T04:43:54.172Z,21.21
2018-07-09T04:44:54.248Z,21.24
2018-07-09T04:45:54.214Z,21.23
2018-07-09T04:46:54.332Z,21.28
2018-07-09T04:47:54.484Z,21.23
2018-07-09T04:48:54.099Z,21.27
2018-07-09T04:49:54.229Z,21.24
2018-07-09T04:50:54.290Z,21.13
2018-07-09T04:51:54.328Z,21.2
2018-07-09T04:52:54.355Z,21.1
2018-07-09T04:53:54.359Z,21.11
2018-07-09T04:54:54.234Z,21.16
2018-07-09T04:55:54.423Z,21.23
2018-07-09T04:56:54.403Z,21.19
2018-07-09T04:58:04.239Z,21.18
2018-07-09T04:58:54.359Z,21.21
2018-07-09T04:59:54.355Z,21.18
2018-07-09T05:00:54.361Z,21.22
2018-07-09T05:01:54.411Z,21.19
2018-07-09T05:02:54.173Z,21.12
2018-07-09T05:03:54.367Z,21.24
2018-07-09T05:04:54.255Z,21.17
2018-07-09T05:05:54.364Z,21.18
2018-07-09T05:06:54.193Z,21.21
2018-07-09T05:07:54.307Z,21.25
2018-07-09T05:08:54.391Z,21.28
2018-07-09T05:09:54.353Z,21.32
2018-07-09T05:10:54.199Z,21.36
2018-07-09T05:11:54.246Z,21.38
2018-07-09T05:12:54.198Z,21.41
2018-07-09T05:13:54.266Z,21.44
2018-07-09T05:14:54.348Z,21.47
2018-07-09T05:15:54.159Z,21.5
2018-07-09T05:16:54.209Z,21.51
2018-07-09T05:17:54.259Z,21.54
2018-07-09T05:18:54.315Z,21.57
2018-07-09T05:19:54.264Z,21.58
2018-07-09T05:20:54.359Z,21.61
2018-07-09T05:21:54.358Z,21.62
2018-07-09T05:22:54.372Z,21.64
2018-07-09T05:23:54.341Z,21.68
2018-07-09T05:24:54.237Z,21.69
2018-07-09T05:25:54.527Z,21.72
2018-07-09T05:26:54.332Z,21.74
2018-07-09T05:27:54.375Z,21.73
2018-07-09T05:28:54.223Z,21.76
2018-07-09T05:29:54.326Z,21.78
2018-07-09T05:30:54.296Z,21.78
2018-07-09T05:31:54.604Z,21.81
2018-07-09T05:32:54.344Z,21.82
2018-07-09T05:33:54.190Z,21.83
2018-07-09T05:34:54.235Z,21.84
2018-07-09T05:35:54.450Z,21.84
2018-07-09T05:36:54.333Z,21.85
2018-07-09T05:37:54.495Z,21.87
2018-07-09T05:38:54.332Z,21.88
2018-07-09T05:39:54.403Z,21.88
2018-07-09T05:40:54.373Z,21.88
2018-07-09T05:41:54.492Z,21.9
2018-07-09T05:42:54.178Z,21.9
2018-07-09T05:43:54.440Z,21.91
2018-07-09T05:44:54.360Z,21.91
2018-07-09T05:45:54.336Z,21.93
2018-07-09T05:46:54.251Z,21.94
2018-07-09T05:47:54.526Z,21.96
2018-07-09T05:48:54.366Z,21.96
2018-07-09T05:49:54.147Z,21.97
2018-07-09T05:50:54.417Z,21.97
2018-07-09T05:51:54.216Z,21.98
2018-07-09T05:52:54.388Z,21.99
2018-07-09T05:53:54.335Z,21.99
2018-07-09T05:54:54.208Z,22
2018-07-09T05:55:54.473Z,22.01
2018-07-09T05:56:54.362Z,22.01
2018-07-09T05:57:54.360Z,22.02
2018-07-09T05:58:54.503Z,22.01
2018-07-09T05:59:54.504Z,22.02
2018-07-09T06:00:54.164Z,22.03
2018-07-09T06:01:54.478Z,22.03
2018-07-09T06:02:54.416Z,22.04
2018-07-09T06:03:54.356Z,22.04
2018-07-09T06:04:54.225Z,22.04
2018-07-09T06:05:54.339Z,22.04
2018-07-09T06:06:54.370Z,22.05
2018-07-09T06:07:54.159Z,22.06
2018-07-09T06:08:54.414Z,22.07
2018-07-09T06:09:54.168Z,22.06
2018-07-09T06:10:54.384Z,22.07
2018-07-09T06:11:54.191Z,22.06
2018-07-09T06:12:54.514Z,22.08
2018-07-09T06:13:54.371Z,22.07
2018-07-09T06:14:54.187Z,22.08
2018-07-09T06:15:54.223Z,22.09
2018-07-09T06:16:54.293Z,22.09
2018-07-09T06:17:54.426Z,22.09
2018-07-09T06:18:54.100Z,22.09
2018-07-09T06:19:54.290Z,22.09
2018-07-09T06:20:54.262Z,22.1
2018-07-09T06:21:54.402Z,22.1
2018-07-09T06:22:54.243Z,22.1
2018-07-09T06:23:54.210Z,22.11
2018-07-09T06:24:54.227Z,22.11
2018-07-09T06:25:54.285Z,22.11
2018-07-09T06:26:54.390Z,22.12
2018-07-09T06:28:04.250Z,22.13
2018-07-09T06:28:54.228Z,22.12
2018-07-09T06:29:54.254Z,22.12
2018-07-09T06:30:54.323Z,22.12
2018-07-09T06:31:54.246Z,22.13
2018-07-09T06:32:54.269Z,22.13
2018-07-09T06:33:54.412Z,22.14
2018-07-09T06:34:54.388Z,22.14
2018-07-09T06:35:54.924Z,22.14
2018-07-09T06:36:54.247Z,22.14
2018-07-09T06:37:54.278Z,22.15
2018-07-09T06:38:54.115Z,22.15
2018-07-09T06:39:54.424Z,22.16
2018-07-09T06:40:54.228Z,22.16
2018-07-09T06:41:54.342Z,22.16
2018-07-09T06:42:54.284Z,22.17
2018-07-09T06:43:54.173Z,22.17
2018-07-09T06:44:54.512Z,22.17
2018-07-09T06:45:54.369Z,22.16
2018-07-09T06:46:54.531Z,22.17
2018-07-09T06:47:54.217Z,22.17
2018-07-09T06:48:54.188Z,22.18
2018-07-09T06:49:54.514Z,22.18
2018-07-09T06:50:54.333Z,22.19
2018-07-09T06:51:54.306Z,22.19
2018-07-09T06:52:54.217Z,22.19
2018-07-09T06:53:54.590Z,22.19
2018-07-09T06:54:54.235Z,22.2
2018-07-09T06:55:54.312Z,22.2
2018-07-09T06:56:54.131Z,22.19
2018-07-09T06:57:54.355Z,22.2
2018-07-09T06:58:54.308Z,22.19
2018-07-09T06:59:54.383Z,22.2
2018-07-09T07:00:54.205Z,22.2
2018-07-09T07:01:54.589Z,22.21
2018-07-09T07:02:54.311Z,22.21
2018-07-09T07:03:54.236Z,22.22
2018-07-09T07:04:54.538Z,22.21
2018-07-09T07:06:26.041Z,22.21
2018-07-09T07:06:54.321Z,22.23
2018-07-09T07:07:54.394Z,22.22
2018-07-09T07:08:54.243Z,22.22
2018-07-09T07:09:54.429Z,22.23
2018-07-09T07:10:54.402Z,22.23
2018-07-09T07:11:54.365Z,22.23
2018-07-09T07:12:54.172Z,22.23
2018-07-09T07:13:54.460Z,22.23
2018-07-09T07:14:54.386Z,22.24
2018-07-09T07:15:54.135Z,22.24
2018-07-09T07:16:54.252Z,22.23
2018-07-09T07:17:54.509Z,22.23
2018-07-09T07:18:54.209Z,22.23
2018-07-09T07:19:54.460Z,22.24
2018-07-09T07:20:54.240Z,22.24
2018-07-09T07:21:54.171Z,22.25
2018-07-09T07:22:54.168Z,22.24
2018-07-09T07:23:54.483Z,22.24
2018-07-09T07:24:54.257Z,22.25
2018-07-09T07:25:54.428Z,22.25
2018-07-09T07:26:54.238Z,22.24
2018-07-09T07:27:54.501Z,22.25
2018-07-09T07:28:54.311Z,22.25
2018-07-09T07:29:54.164Z,22.25
2018-07-09T07:30:54.150Z,22.25
2018-07-09T07:31:54.280Z,22.25
2018-07-09T07:32:54.170Z,22.25
2018-07-09T07:33:54.181Z,22.26
2018-07-09T07:34:54.318Z,22.25
2018-07-09T07:35:54.328Z,22.26
2018-07-09T07:36:54.176Z,22.26
2018-07-09T07:37:54.250Z,22.26
2018-07-09T07:38:54.311Z,22.27
2018-07-09T07:39:54.147Z,22.26
2018-07-09T07:40:54.188Z,22.26
2018-07-09T07:41:54.195Z,22.26
2018-07-09T07:42:54.123Z,22.27
2018-07-09T07:43:54.369Z,22.26
2018-07-09T07:44:54.390Z,22.28
2018-07-09T07:45:54.177Z,22.27
2018-07-09T07:46:54.370Z,22.27
2018-07-09T07:47:54.170Z,22.27
2018-07-09T07:48:54.097Z,22.29
2018-07-09T07:49:54.394Z,22.28
2018-07-09T07:50:54.132Z,22.28
2018-07-09T07:51:54.317Z,22.29
2018-07-09T07:52:54.262Z,22.28
2018-07-09T07:53:54.168Z,22.28
2018-07-09T07:54:54.240Z,22.28
2018-07-09T07:55:54.342Z,22.28
2018-07-09T07:56:54.176Z,22.29
2018-07-09T07:57:54.052Z,22.3
2018-07-09T07:58:54.330Z,22.3
2018-07-09T07:59:54.170Z,22.29
2018-07-09T08:00:54.312Z,22.3
2018-07-09T08:01:54.109Z,22.29
2018-07-09T08:02:54.377Z,22.3
2018-07-09T08:03:54.309Z,22.3
2018-07-09T08:04:54.180Z,22.3
2018-07-09T08:05:54.308Z,22.3
2018-07-09T08:06:54.175Z,22.3
2018-07-09T08:07:54.234Z,22.31
2018-07-09T08:08:54.199Z,22.32
2018-07-09T08:09:54.236Z,22.31
2018-07-09T08:10:54.257Z,22.31
2018-07-09T08:11:54.143Z,22.31
2018-07-09T08:13:27.167Z,22.32
2018-07-09T08:13:54.323Z,22.32
2018-07-09T08:14:54.396Z,22.31
2018-07-09T08:15:54.093Z,22.32
2018-07-09T08:16:54.367Z,22.32
2018-07-09T08:17:54.296Z,22.32
2018-07-09T08:18:54.162Z,22.32
2018-07-09T08:19:54.235Z,22.32
2018-07-09T08:20:54.931Z,22.32
2018-07-09T08:21:54.323Z,22.32
2018-07-09T08:22:54.330Z,22.32
2018-07-09T08:23:54.201Z,22.33
2018-07-09T08:24:54.345Z,22.32
2018-07-09T08:25:54.224Z,22.32
2018-07-09T08:26:54.275Z,22.32
2018-07-09T08:27:54.255Z,22.34
2018-07-09T08:28:54.227Z,22.33
2018-07-09T08:29:54.424Z,22.34
2018-07-09T08:30:54.132Z,22.33
2018-07-09T08:31:54.156Z,22.33
2018-07-09T08:32:54.364Z,22.34
2018-07-09T08:33:54.124Z,22.34
2018-07-09T08:34:54.340Z,22.34
2018-07-09T08:35:54.342Z,22.35
2018-07-09T08:36:54.266Z,22.34
2018-07-09T08:37:54.395Z,22.35
2018-07-09T08:38:54.212Z,22.35
2018-07-09T08:39:54.186Z,22.34
2018-07-09T08:40:54.134Z,22.34
2018-07-09T08:41:54.235Z,22.35
2018-07-09T08:42:54.094Z,22.35
2018-07-09T08:43:54.295Z,22.34
2018-07-09T08:44:54.549Z,22.34
2018-07-09T08:45:54.291Z,22.35
2018-07-09T08:46:54.335Z,22.36
2018-07-09T08:47:54.262Z,22.35
2018-07-09T08:48:54.269Z,22.34
2018-07-09T08:49:54.178Z,22.35
2018-07-09T08:50:54.339Z,22.35
2018-07-09T08:51:54.098Z,22.34
2018-07-09T08:52:54.126Z,22.35
2018-07-09T08:53:54.234Z,22.35
2018-07-09T08:54:54.273Z,22.34
2018-07-09T08:55:54.291Z,22.34
2018-07-09T08:56:54.273Z,22.37
2018-07-09T08:57:54.320Z,22.37
2018-07-09T08:58:54.207Z,22.37
2018-07-09T08:59:54.285Z,22.38
2018-07-09T09:00:54.095Z,22.38
2018-07-09T09:01:54.293Z,22.4
2018-07-09T09:02:54.374Z,22.41
2018-07-09T09:03:54.409Z,22.44
2018-07-09T09:04:54.331Z,22.44
2018-07-09T09:05:54.180Z,22.44
2018-07-09T09:06:54.269Z,22.44
2018-07-09T09:07:54.345Z,22.45
2018-07-09T09:08:54.347Z,22.47
2018-07-09T09:09:54.139Z,22.5
2018-07-09T09:10:54.502Z,22.49
2018-07-09T09:11:54.324Z,22.5
2018-07-09T09:12:54.395Z,22.51
2018-07-09T09:13:54.229Z,22.51
2018-07-09T09:14:54.245Z,22.5
2018-07-09T09:15:54.333Z,22.51
2018-07-09T09:16:54.517Z,22.52
2018-07-09T09:17:54.340Z,22.51
2018-07-09T09:18:54.338Z,22.51
2018-07-09T09:19:54.176Z,22.51
2018-07-09T09:20:54.347Z,22.51
2018-07-09T09:21:54.341Z,22.53
2018-07-09T09:22:54.639Z,22.53
2018-07-09T09:23:54.190Z,22.55
2018-07-09T09:24:54.395Z,22.55
2018-07-09T09:25:54.357Z,22.55
2018-07-09T09:26:54.361Z,22.55
2018-07-09T09:27:54.420Z,22.56
2018-07-09T09:28:54.216Z,22.56
2018-07-09T09:30:04.338Z,22.55
2018-07-09T09:30:54.227Z,22.56
2018-07-09T09:31:54.227Z,22.55
2018-07-09T09:32:54.472Z,22.58
2018-07-09T09:33:54.723Z,22.58
2018-07-09T09:34:54.230Z,22.57
2018-07-09T09:35:54.182Z,22.58
2018-07-09T09:36:54.369Z,22.59
2018-07-09T09:37:54.159Z,22.58
2018-07-09T09:38:54.099Z,22.58
2018-07-09T09:39:54.301Z,22.61
2018-07-09T09:40:54.520Z,22.61
2018-07-09T09:41:54.222Z,22.62
2018-07-09T09:42:54.229Z,22.61
2018-07-09T09:43:54.299Z,22.63
2018-07-09T09:44:54.035Z,22.63
2018-07-09T09:45:54.982Z,22.63
2018-07-09T09:46:54.203Z,22.63
2018-07-09T09:47:54.056Z,22.65
2018-07-09T09:48:54.909Z,22.66
2018-07-09T09:49:54.351Z,22.68
2018-07-09T09:50:54.272Z,22.66
2018-07-09T09:51:54.307Z,22.66
2018-07-09T09:52:54.336Z,22.67
2018-07-09T09:53:54.280Z,22.66
2018-07-09T09:54:54.261Z,22.66
2018-07-09T09:55:54.297Z,22.63
2018-07-09T09:56:54.389Z,22.62
2018-07-09T09:57:54.169Z,22.62
2018-07-09T09:58:54.386Z,22.61
2018-07-09T09:59:54.182Z,22.6
2018-07-09T10:00:54.298Z,22.59
2018-07-09T10:01:54.104Z,22.6
2018-07-09T10:02:54.128Z,22.62
2018-07-09T10:03:54.275Z,22.59
2018-07-09T10:04:54.219Z,22.58
2018-07-09T10:05:54.080Z,22.6
2018-07-09T10:06:54.249Z,22.59
2018-07-09T10:07:54.358Z,22.58
2018-07-09T10:08:54.157Z,22.59
2018-07-09T10:09:54.148Z,22.6
2018-07-09T10:10:54.194Z,22.59
2018-07-09T10:11:54.259Z,22.58
2018-07-09T10:12:54.148Z,22.61
2018-07-09T10:13:54.305Z,22.58
2018-07-09T10:14:54.090Z,22.6
2018-07-09T10:15:54.296Z,22.61
2018-07-09T10:16:54.371Z,22.6
2018-07-09T10:17:54.292Z,22.58
2018-07-09T10:18:54.251Z,22.57
2018-07-09T10:19:54.201Z,22.58
2018-07-09T10:20:54.209Z,22.58
2018-07-09T10:21:54.041Z,22.58
2018-07-09T10:22:54.246Z,22.58
2018-07-09T10:23:54.047Z,22.59
2018-07-09T10:24:54.663Z,22.62
2018-07-09T10:25:54.120Z,22.58
2018-07-09T10:26:54.271Z,22.61
2018-07-09T10:27:54.177Z,22.59
2018-07-09T10:28:54.280Z,22.58
2018-07-09T10:29:54.131Z,22.59
2018-07-09T10:30:54.123Z,22.61
2018-07-09T10:31:54.156Z,22.59
2018-07-09T10:32:54.284Z,22.61
2018-07-09T10:33:54.225Z,22.59
2018-07-09T10:34:54.221Z,22.58
2018-07-09T10:35:54.168Z,22.58
2018-07-09T10:36:54.284Z,22.58
2018-07-09T10:37:54.389Z,22.57
2018-07-09T10:38:54.293Z,22.59
2018-07-09T10:39:54.362Z,22.58
2018-07-09T10:40:54.286Z,22.59
2018-07-09T10:41:54.189Z,22.6
2018-07-09T10:42:54.068Z,22.6
2018-07-09T10:43:54.512Z,22.61
2018-07-09T10:44:54.326Z,22.59
2018-07-09T10:45:54.218Z,22.58
2018-07-09T10:46:54.337Z,22.58
2018-07-09T10:47:54.357Z,22.58
2018-07-09T10:48:54.229Z,22.59
2018-07-09T10:49:54.318Z,22.58
2018-07-09T10:50:53.997Z,22.56
2018-07-09T10:51:54.155Z,22.57
2018-07-09T10:52:54.283Z,22.57
2018-07-09T10:53:54.275Z,22.56
2018-07-09T10:54:54.287Z,22.57
2018-07-09T10:55:54.109Z,22.57
2018-07-09T10:56:54.372Z,22.57
2018-07-09T10:57:54.273Z,22.56
2018-07-09T10:58:54.311Z,22.56
2018-07-09T10:59:54.138Z,22.58
2018-07-09T11:00:54.296Z,22.58
2018-07-09T11:01:54.346Z,22.56
2018-07-09T11:02:54.280Z,22.56
2018-07-09T11:03:54.069Z,22.56
2018-07-09T11:04:54.186Z,22.55
2018-07-09T11:05:54.144Z,22.55
2018-07-09T11:06:54.134Z,22.55
2018-07-09T11:07:54.160Z,22.54
2018-07-09T11:08:54.038Z,22.55
2018-07-09T11:09:54.275Z,22.55
2018-07-09T11:10:54.117Z,22.55
2018-07-09T11:11:54.306Z,22.54
2018-07-09T11:12:54.112Z,22.56
2018-07-09T11:13:54.205Z,22.55
2018-07-09T11:14:54.290Z,22.55
2018-07-09T11:15:54.169Z,22.55
2018-07-09T11:16:58.789Z,22.56
2018-07-09T11:17:54.021Z,22.55
2018-07-09T11:18:54.230Z,22.55
2018-07-09T11:19:54.170Z,22.55
2018-07-09T11:20:54.245Z,22.55
2018-07-09T11:21:54.340Z,22.56
2018-07-09T11:22:54.252Z,22.55
2018-07-09T11:23:54.550Z,22.55
2018-07-09T11:24:54.132Z,22.55
2018-07-09T11:25:54.179Z,22.56
2018-07-09T11:26:54.127Z,22.56
2018-07-09T11:27:54.217Z,22.56
2018-07-09T11:28:54.414Z,22.55
2018-07-09T11:29:54.327Z,22.56
2018-07-09T11:30:54.219Z,22.57
2018-07-09T11:31:54.156Z,22.57
2018-07-09T11:32:54.289Z,22.56
2018-07-09T11:33:54.317Z,22.56
2018-07-09T11:34:54.208Z,22.55
2018-07-09T11:35:54.004Z,22.56
2018-07-09T11:36:54.362Z,22.56
2018-07-09T11:37:54.124Z,22.56
2018-07-09T11:38:54.468Z,22.56
2018-07-09T11:39:54.105Z,22.56
2018-07-09T11:40:54.263Z,22.56
2018-07-09T11:41:54.096Z,22.56
2018-07-09T11:42:54.174Z,22.57
2018-07-09T11:43:54.516Z,22.56
2018-07-09T11:44:54.214Z,22.56
2018-07-09T11:45:54.156Z,22.56
2018-07-09T11:46:54.102Z,22.56
2018-07-09T11:47:54.109Z,22.57
2018-07-09T11:48:54.419Z,22.56
2018-07-09T11:49:54.199Z,22.55
2018-07-09T11:50:54.285Z,22.55
2018-07-09T11:51:54.213Z,22.56
2018-07-09T11:52:54.271Z,22.56
2018-07-09T11:54:04.165Z,22.57
2018-07-09T11:54:54.181Z,22.56
2018-07-09T11:55:54.215Z,22.56
2018-07-09T11:56:54.162Z,22.56
2018-07-09T11:57:54.141Z,22.56
2018-07-09T11:58:54.315Z,22.56
2018-07-09T11:59:54.085Z,22.55
2018-07-09T12:00:54.115Z,22.56
2018-07-09T12:01:54.192Z,22.55
2018-07-09T12:02:54.266Z,22.56
2018-07-09T12:03:54.346Z,22.55
2018-07-09T12:04:54.089Z,22.57
2018-07-09T12:05:54.158Z,22.56
2018-07-09T12:06:54.209Z,22.55
2018-07-09T12:07:54.333Z,22.55
2018-07-09T12:08:54.183Z,22.56
2018-07-09T12:09:54.235Z,22.56
2018-07-09T12:10:54.169Z,22.56
2018-07-09T12:11:54.153Z,22.55
2018-07-09T12:12:54.141Z,22.55
2018-07-09T12:13:54.304Z,22.56
2018-07-09T12:14:54.126Z,22.55
2018-07-09T12:15:54.102Z,22.56
2018-07-09T12:16:54.296Z,22.55
2018-07-09T12:17:54.142Z,22.55
2018-07-09T12:18:54.147Z,22.56
2018-07-09T12:19:54.128Z,22.55
2018-07-09T12:20:54.148Z,22.55
2018-07-09T12:21:54.460Z,22.55
2018-07-09T12:22:54.385Z,22.55
2018-07-09T12:23:54.051Z,22.57
2018-07-09T12:24:54.167Z,22.55
2018-07-09T12:25:54.346Z,22.55
2018-07-09T12:26:54.323Z,22.56
2018-07-09T12:27:54.263Z,22.56
2018-07-09T12:28:54.248Z,22.55
2018-07-09T12:29:54.091Z,22.55
2018-07-09T12:30:54.230Z,22.55
2018-07-09T12:31:54.099Z,22.55
2018-07-09T12:32:54.162Z,22.55
2018-07-09T12:33:54.093Z,22.55
2018-07-09T12:34:54.151Z,22.55
2018-07-09T12:35:54.042Z,22.56
2018-07-09T12:36:54.205Z,22.56
2018-07-09T12:37:54.291Z,22.56
2018-07-09T12:38:54.232Z,22.55
2018-07-09T12:39:54.119Z,22.55
2018-07-09T12:40:54.312Z,22.56
2018-07-09T12:41:54.290Z,22.55
2018-07-09T12:42:54.180Z,22.55
2018-07-09T12:43:54.261Z,22.56
2018-07-09T12:44:54.054Z,22.56
2018-07-09T12:45:54.114Z,22.55
2018-07-09T12:46:54.304Z,22.55
2018-07-09T12:47:54.076Z,22.56
2018-07-09T12:48:54.139Z,22.55
2018-07-09T12:49:54.260Z,22.55
2018-07-09T12:50:54.205Z,22.56
2018-07-09T12:51:54.111Z,22.55
2018-07-09T12:52:54.172Z,22.55
2018-07-09T12:53:54.149Z,22.55
2018-07-09T12:54:54.304Z,22.56
2018-07-09T12:55:54.190Z,22.55